Time;durP1;ratioP1;P1;durP2;ratioP2;P2;SDS_P1;SDS_P2;PMS_P1;PMS_P2;Temp;Humidity;BMP_temperature;BMP_pressure;BME280_temperature;BME280_humidity;BME280_pressure;Samples;Min_cycle;Max_cycle;Signal;HPM_P1;HPM_P2
2024/01/02 00:01:09;;;;;;;16.55;2.00;;;11.30;99.90;;;;;;5015259;28;20852;-75
2024/01/02 00:03:34;;;;;;;4.82;1.17;;;11.30;99.90;;;;;;5012895;28;20517;-76
2024/01/02 00:06:00;;;;;;;7.07;1.35;;;11.30;99.90;;;;;;5010619;28;20071;-76
2024/01/02 00:08:26;;;;;;;13.98;1.70;;;11.30;99.90;;;;;;5012708;28;20236;-76
2024/01/02 00:10:51;;;;;;;8.13;1.02;;;11.40;99.90;;;;;;5008606;28;20091;-76
2024/01/02 00:13:17;;;;;;;7.55;1.30;;;11.40;99.90;;;;;;5017379;28;20414;-76
2024/01/02 00:15:43;;;;;;;37.17;2.50;;;11.40;99.90;;;;;;5014702;28;20038;-77
2024/01/02 00:18:09;;;;;;;16.23;2.20;;;11.50;99.90;;;;;;5009590;28;20034;-76
2024/01/02 00:20:34;;;;;;;24.20;2.92;;;11.50;99.90;;;;;;5014910;28;20079;-76
2024/01/02 00:23:00;;;;;;;13.15;1.20;;;11.60;99.90;;;;;;5012656;28;20091;-74
2024/01/02 00:25:26;;;;;;;15.40;1.13;;;11.60;99.90;;;;;;5011612;28;20055;-75
2024/01/02 00:27:53;;;;;;;13.50;3.42;;;11.60;99.90;;;;;;4996623;28;20065;-74
2024/01/02 00:30:19;;;;;;;9.40;2.35;;;11.60;99.90;;;;;;5012043;28;20049;-74
2024/01/02 00:32:44;;;;;;;6.30;1.65;;;11.60;99.90;;;;;;5014010;28;20445;-74
2024/01/02 00:35:10;;;;;;;14.05;2.28;;;11.70;99.90;;;;;;5015185;28;20387;-74
2024/01/02 00:37:36;;;;;;;17.65;1.25;;;11.60;99.90;;;;;;5009032;28;20421;-74
2024/01/02 00:40:01;;;;;;;17.70;2.55;;;11.70;99.90;;;;;;5016724;28;20021;-75
2024/01/02 00:42:28;;;;;;;12.70;2.38;;;11.70;99.90;;;;;;5017702;28;20454;-75
2024/01/02 00:44:53;;;;;;;17.15;2.20;;;11.70;99.90;;;;;;5006191;28;20037;-75
2024/01/02 00:47:21;;;;;;;23.17;3.45;;;11.70;99.90;;;;;;5015816;28;20044;-75
2024/01/02 00:49:48;;;;;;;6.30;1.90;;;11.70;99.90;;;;;;5012791;28;20482;-74
2024/01/02 00:52:14;;;;;;;3.90;1.42;;;11.70;99.90;;;;;;5011862;28;20131;-74
2024/01/02 00:54:39;;;;;;;19.83;2.30;;;11.80;99.90;;;;;;5017337;28;20124;-74
2024/01/02 00:57:05;;;;;;;6.57;1.35;;;11.80;99.90;;;;;;5011991;28;20374;-75
2024/01/02 00:59:31;;;;;;;16.15;3.05;;;11.80;99.90;;;;;;5013692;28;20041;-73
2024/01/02 01:01:56;;;;;;;16.20;3.70;;;11.80;99.90;;;;;;5016294;28;20033;-74
2024/01/02 01:04:23;;;;;;;5.05;1.75;;;11.80;99.90;;;;;;5013238;28;20033;-73
2024/01/02 01:06:48;;;;;;;26.17;1.92;;;11.90;99.90;;;;;;5015844;28;20094;-73
2024/01/02 01:09:14;;;;;;;4.30;1.95;;;11.90;99.90;;;;;;5017279;28;20061;-74
2024/01/02 01:11:40;;;;;;;13.52;1.85;;;11.90;99.90;;;;;;5013240;28;20453;-73
2024/01/02 01:14:06;;;;;;;12.68;1.65;;;11.90;99.90;;;;;;5015052;28;20084;-73
2024/01/02 01:16:31;;;;;;;8.57;1.92;;;11.90;99.90;;;;;;5012682;28;20493;-73
2024/01/02 01:18:57;;;;;;;10.27;1.95;;;11.90;99.90;;;;;;5017512;28;20057;-73
2024/01/02 01:21:22;;;;;;;12.85;1.95;;;11.90;99.90;;;;;;5016480;28;20071;-73
2024/01/02 01:23:48;;;;;;;44.97;3.10;;;11.90;99.90;;;;;;5013058;28;20038;-73
2024/01/02 01:26:14;;;;;;;13.95;1.50;;;11.90;99.90;;;;;;5013184;28;20038;-73
2024/01/02 01:28:39;;;;;;;12.15;1.58;;;11.90;99.90;;;;;;5009864;28;20356;-72
2024/01/02 01:31:05;;;;;;;15.88;3.85;;;11.90;99.90;;;;;;5016727;28;20560;-73
2024/01/02 01:33:31;;;;;;;6.93;1.02;;;11.90;99.90;;;;;;5017530;28;20053;-73
2024/01/02 01:35:56;;;;;;;8.05;2.10;;;11.90;99.90;;;;;;5018902;28;20123;-73
2024/01/02 01:38:22;;;;;;;11.55;1.48;;;11.90;99.90;;;;;;5011921;28;20410;-73
2024/01/02 01:40:48;;;;;;;9.82;2.25;;;11.90;99.90;;;;;;5012707;28;20638;-71
2024/01/02 01:43:14;;;;;;;10.05;1.38;;;11.90;99.90;;;;;;5018021;28;20468;-73
2024/01/02 01:45:40;;;;;;;5.22;1.10;;;11.90;99.90;;;;;;5008652;28;20490;-72
2024/01/02 01:48:08;;;;;;;14.38;2.08;;;11.90;99.90;;;;;;5016016;28;20425;-71
2024/01/02 01:50:34;;;;;;;4.60;1.10;;;11.80;99.90;;;;;;5015460;28;20072;-72
2024/01/02 01:53:01;;;;;;;20.50;2.25;;;11.90;99.90;;;;;;5018519;28;20108;-72
2024/01/02 01:55:26;;;;;;;8.32;1.65;;;11.90;99.90;;;;;;5019088;28;20034;-72
2024/01/02 01:57:53;;;;;;;12.95;1.25;;;11.90;99.90;;;;;;5010124;28;20091;-72
2024/01/02 02:00:20;;;;;;;6.85;1.45;;;11.90;99.90;;;;;;5011512;28;20036;-72
2024/01/02 02:02:46;;;;;;;21.75;1.70;;;11.90;99.90;;;;;;5023526;28;20026;-72
2024/01/02 02:05:12;;;;;;;13.88;1.42;;;11.90;99.90;;;;;;5027902;28;20036;-73
2024/01/02 02:07:40;;;;;;;20.02;2.30;;;11.90;99.90;;;;;;5025427;28;20622;-72
2024/01/02 02:10:08;;;;;;;6.57;1.53;;;11.90;99.90;;;;;;5020449;28;20080;-73
2024/01/02 02:12:35;;;;;;;8.05;2.08;;;11.90;99.90;;;;;;5012210;28;20053;-72
2024/01/02 02:15:00;;;;;;;24.10;4.20;;;11.90;99.90;;;;;;5011851;28;20029;-73
2024/01/02 02:17:30;;;;;;;26.77;2.05;;;11.90;99.90;;;;;;5012777;28;20033;-72
2024/01/02 02:19:56;;;;;;;10.15;1.38;;;11.90;99.90;;;;;;5011007;28;20038;-72
2024/01/02 02:22:32;;;;;;;8.23;1.80;;;11.90;99.90;;;;;;5018269;28;20561;-73
2024/01/02 02:24:58;;;;;;;9.82;2.47;;;11.90;99.90;;;;;;5013768;28;20026;-72
2024/01/02 02:27:27;;;;;;;16.17;1.70;;;11.90;99.90;;;;;;5019238;28;20547;-71
2024/01/02 02:29:53;;;;;;;19.77;3.35;;;11.90;99.90;;;;;;5014833;28;20089;-72
2024/01/02 02:32:19;;;;;;;12.23;2.42;;;12.00;99.90;;;;;;5013659;28;20037;-72
2024/01/02 02:34:45;;;;;;;16.33;2.38;;;12.00;99.90;;;;;;5018542;28;20402;-73
2024/01/02 02:37:10;;;;;;;18.30;3.60;;;12.00;99.90;;;;;;5012150;28;20468;-72
2024/01/02 02:39:36;;;;;;;12.10;2.47;;;12.00;99.90;;;;;;5013735;28;20390;-72
2024/01/02 02:42:02;;;;;;;11.90;2.80;;;12.00;99.90;;;;;;5015355;28;20490;-72
2024/01/02 02:44:27;;;;;;;18.02;2.22;;;11.90;99.90;;;;;;5011564;28;20072;-70
2024/01/02 02:46:53;;;;;;;18.60;1.80;;;11.90;99.90;;;;;;5015498;28;20058;-72
2024/01/02 02:49:19;;;;;;;8.73;1.95;;;11.90;99.90;;;;;;5016887;28;20053;-72
2024/01/02 02:51:44;;;;;;;14.07;1.88;;;11.90;99.90;;;;;;5012700;28;20060;-71
2024/01/02 02:54:10;;;;;;;15.77;3.17;;;11.90;99.90;;;;;;5018061;28;20509;-72
2024/01/02 02:56:35;;;;;;;14.45;2.88;;;11.90;99.90;;;;;;5014472;28;20075;-72
2024/01/02 02:59:01;;;;;;;18.73;3.05;;;11.90;99.90;;;;;;5008174;28;20065;-72
2024/01/02 03:01:27;;;;;;;13.02;3.45;;;11.90;99.90;;;;;;5013004;28;20259;-72
2024/01/02 03:03:52;;;;;;;35.90;3.38;;;11.90;99.90;;;;;;5011435;28;20038;-72
2024/01/02 03:06:30;;;;;;;14.52;2.25;;;11.90;99.90;;;;;;5008433;28;20036;-71
2024/01/02 03:08:56;;;;;;;47.03;5.03;;;11.90;99.90;;;;;;5018875;28;20038;-73
2024/01/02 03:11:21;;;;;;;26.85;4.95;;;11.90;99.90;;;;;;5010670;28;20032;-72
2024/01/02 03:13:47;;;;;;;11.23;2.30;;;11.90;99.90;;;;;;5014843;28;20037;-72
2024/01/02 03:16:14;;;;;;;17.55;2.95;;;12.00;99.90;;;;;;5009381;28;20041;-72
2024/01/02 03:18:40;;;;;;;21.27;2.28;;;12.00;99.90;;;;;;5005518;28;20539;-72
2024/01/02 03:21:09;;;;;;;18.25;3.20;;;12.00;99.90;;;;;;5007352;28;20032;-72
2024/01/02 03:23:34;;;;;;;28.03;3.77;;;12.00;99.90;;;;;;5017149;28;20124;-72
2024/01/02 03:26:00;;;;;;;28.90;3.28;;;12.00;99.90;;;;;;5009695;28;20801;-72
2024/01/02 03:28:26;;;;;;;16.42;2.88;;;12.00;99.90;;;;;;5012617;28;20049;-71
2024/01/02 03:30:52;;;;;;;14.57;3.28;;;12.00;99.90;;;;;;5013008;28;20575;-73
2024/01/02 03:33:18;;;;;;;19.83;3.25;;;12.00;99.90;;;;;;5011895;28;20052;-72
2024/01/02 03:35:45;;;;;;;25.65;2.78;;;12.00;99.90;;;;;;5020645;28;20038;-72
2024/01/02 03:38:10;;;;;;;19.38;4.68;;;12.00;99.90;;;;;;5010316;28;20038;-71
2024/01/02 03:40:36;;;;;;;34.67;3.60;;;12.00;99.90;;;;;;5011488;28;20025;-72
2024/01/02 03:43:02;;;;;;;7.18;2.05;;;12.00;99.90;;;;;;5014112;28;20026;-72
2024/01/02 03:45:28;;;;;;;19.67;3.05;;;12.00;99.90;;;;;;5008694;28;20417;-72
2024/01/02 03:47:53;;;;;;;18.42;2.33;;;12.00;99.90;;;;;;5013790;28;20152;-72
2024/01/02 03:50:19;;;;;;;8.93;1.30;;;11.90;99.90;;;;;;5015520;28;20041;-72
2024/01/02 03:52:45;;;;;;;13.15;3.50;;;11.90;99.90;;;;;;5011026;28;20071;-71
2024/01/02 03:55:10;;;;;;;18.90;2.08;;;11.80;99.90;;;;;;5016228;28;20038;-72
2024/01/02 03:57:36;;;;;;;9.27;2.13;;;11.90;99.90;;;;;;5011896;28;20041;-72
2024/01/02 04:00:04;;;;;;;18.20;2.00;;;11.80;99.90;;;;;;5011065;28;20077;-71
2024/01/02 04:02:29;;;;;;;17.30;2.38;;;11.80;99.90;;;;;;5010740;28;20429;-71
2024/01/02 04:04:55;;;;;;;16.17;2.15;;;11.80;99.90;;;;;;5008647;28;20029;-72
2024/01/02 04:07:22;;;;;;;16.75;2.15;;;11.90;99.90;;;;;;5016524;28;20052;-72
2024/01/02 04:09:48;;;;;;;25.02;3.13;;;11.90;99.90;;;;;;5020929;28;20029;-71
2024/01/02 04:12:13;;;;;;;8.57;1.73;;;11.90;99.90;;;;;;5009716;28;20022;-72
2024/01/02 04:14:39;;;;;;;13.55;2.38;;;11.80;99.90;;;;;;5015044;28;20310;-71
2024/01/02 04:17:05;;;;;;;14.57;2.75;;;11.80;99.90;;;;;;5012599;28;20026;-73
2024/01/02 04:19:31;;;;;;;26.17;3.33;;;11.80;99.90;;;;;;5007837;28;20037;-73
2024/01/02 04:21:56;;;;;;;27.52;3.85;;;11.70;99.90;;;;;;5015281;28;20045;-73
2024/01/02 04:24:23;;;;;;;22.00;4.20;;;11.70;99.90;;;;;;5017100;28;20037;-72
2024/01/02 04:26:49;;;;;;;11.85;2.63;;;11.70;99.90;;;;;;5017699;28;20038;-73
2024/01/02 04:29:14;;;;;;;13.05;2.83;;;11.70;99.90;;;;;;5020092;28;20128;-72
2024/01/02 04:31:40;;;;;;;6.78;2.42;;;11.70;99.90;;;;;;5018310;28;20033;-71
2024/01/02 04:34:06;;;;;;;21.85;2.95;;;11.60;99.90;;;;;;5021395;28;20034;-73
2024/01/02 04:36:32;;;;;;;13.82;3.78;;;11.60;99.90;;;;;;5019035;28;20389;-72
2024/01/02 04:38:57;;;;;;;23.65;4.25;;;11.50;99.90;;;;;;5019023;28;20799;-73
2024/01/02 04:41:23;;;;;;;12.93;2.88;;;11.50;99.90;;;;;;5041852;28;20054;-72
2024/01/02 04:43:48;;;;;;;29.35;3.20;;;11.50;99.90;;;;;;5028228;28;20057;-71
2024/01/02 04:46:14;;;;;;;13.07;1.63;;;11.50;99.90;;;;;;5016572;28;20166;-73
2024/01/02 04:48:40;;;;;;;14.60;3.90;;;11.50;99.90;;;;;;5016963;28;20055;-73
2024/01/02 04:51:05;;;;;;;21.02;3.40;;;11.50;99.90;;;;;;5013952;28;20041;-71
2024/01/02 04:53:31;;;;;;;13.55;2.13;;;11.60;99.90;;;;;;5012316;28;20124;-72
2024/01/02 04:55:57;;;;;;;28.63;3.00;;;11.60;99.90;;;;;;5021107;28;20022;-72
2024/01/02 04:58:22;;;;;;;18.80;3.88;;;11.50;99.90;;;;;;5013613;28;20033;-72
2024/01/02 05:00:48;;;;;;;8.68;2.83;;;11.50;99.90;;;;;;5014496;28;20537;-72
2024/01/02 05:03:14;;;;;;;21.10;3.70;;;11.50;99.90;;;;;;5007664;28;20052;-72
2024/01/02 05:05:39;;;;;;;12.38;2.72;;;11.50;99.90;;;;;;5018677;28;20258;-71
2024/01/02 05:08:05;;;;;;;16.60;1.88;;;11.50;99.90;;;;;;5012731;28;20037;-72
2024/01/02 05:10:31;;;;;;;7.25;1.77;;;11.60;99.90;;;;;;5016148;28;20040;-72
2024/01/02 05:12:57;;;;;;;16.85;2.85;;;11.50;99.90;;;;;;5010128;28;20117;-71
2024/01/02 05:15:23;;;;;;;22.05;4.10;;;11.50;99.90;;;;;;5021063;28;20172;-72
2024/01/02 05:17:49;;;;;;;19.05;2.88;;;11.40;99.90;;;;;;5014865;28;20161;-72
2024/01/02 05:20:14;;;;;;;11.20;1.70;;;11.40;99.90;;;;;;5010871;28;20033;-72
2024/01/02 05:22:40;;;;;;;22.20;2.42;;;11.40;99.90;;;;;;5014936;28;20030;-72
2024/01/02 05:25:07;;;;;;;26.80;2.35;;;11.40;99.90;;;;;;5010291;28;20029;-72
2024/01/02 05:27:33;;;;;;;18.85;2.92;;;11.40;99.90;;;;;;5018454;28;20405;-72
2024/01/02 05:29:59;;;;;;;10.88;1.00;;;11.30;99.90;;;;;;5016743;28;20048;-73
2024/01/02 05:32:24;;;;;;;12.18;2.45;;;11.20;99.90;;;;;;5013516;28;20110;-73
2024/01/02 05:34:50;;;;;;;9.88;2.10;;;11.20;99.90;;;;;;5019409;28;20528;-72
2024/01/02 05:37:16;;;;;;;17.60;2.38;;;11.20;99.90;;;;;;5013324;28;20061;-71
2024/01/02 05:39:42;;;;;;;18.83;2.28;;;11.30;99.90;;;;;;5012430;28;20037;-72
2024/01/02 05:42:08;;;;;;;11.18;1.77;;;11.30;99.90;;;;;;5015997;28;20034;-72
2024/01/02 05:44:33;;;;;;;12.38;2.15;;;11.30;99.90;;;;;;5018499;28;20040;-73
2024/01/02 05:46:59;;;;;;;19.40;2.92;;;11.30;99.90;;;;;;5015840;28;20037;-73
2024/01/02 05:49:25;;;;;;;7.30;1.92;;;11.30;99.90;;;;;;5016965;28;20040;-72
2024/01/02 05:51:50;;;;;;;7.68;1.52;;;11.30;99.90;;;;;;5012994;28;20069;-73
2024/01/02 05:54:16;;;;;;;14.73;1.55;;;11.40;99.90;;;;;;5015976;28;20470;-74
2024/01/02 05:56:43;;;;;;;8.27;2.25;;;11.40;99.90;;;;;;5018022;28;20084;-73
2024/01/02 05:59:09;;;;;;;16.52;2.55;;;11.50;99.90;;;;;;5010105;28;20125;-75
2024/01/02 06:01:35;;;;;;;17.55;2.20;;;11.50;99.90;;;;;;5016287;28;20405;-76
2024/01/02 06:04:01;;;;;;;5.53;2.10;;;11.50;99.90;;;;;;5018324;28;20032;-74
2024/01/02 06:09:48;;;;;;;18.67;1.60;;;11.50;99.90;;;;;;5021450;28;20029;-75
2024/01/02 06:12:14;;;;;;;7.68;1.38;;;11.40;99.90;;;;;;5015232;28;20405;-77
2024/01/02 06:14:40;;;;;;;10.55;1.50;;;11.40;99.90;;;;;;5016873;28;20041;-75
2024/01/02 06:17:06;;;;;;;1.90;0.85;;;11.40;99.90;;;;;;5017327;28;20243;-76
2024/01/02 06:19:31;;;;;;;9.50;1.77;;;11.40;99.90;;;;;;5000130;28;20033;-76
2024/01/02 06:22:38;;;;;;;13.65;1.45;;;11.40;99.90;;;;;;5018186;28;20080;-75
2024/01/02 06:25:08;;;;;;;7.03;1.13;;;11.30;99.90;;;;;;5004115;28;20034;-75
2024/01/02 06:27:34;;;;;;;2.15;0.65;;;11.30;99.90;;;;;;5011133;28;20080;-76
2024/01/02 06:30:00;;;;;;;10.98;1.88;;;11.30;99.90;;;;;;5014095;28;20141;-74
2024/01/02 06:32:25;;;;;;;2.67;1.60;;;11.30;99.90;;;;;;5016599;28;20033;-75
2024/01/02 06:34:51;;;;;;;2.17;0.52;;;11.20;99.90;;;;;;5013249;28;20514;-75
2024/01/02 06:37:17;;;;;;;10.23;1.33;;;11.20;99.90;;;;;;5018113;28;20514;-76
2024/01/02 06:39:43;;;;;;;3.45;1.25;;;11.20;99.90;;;;;;5012983;28;20034;-75
2024/01/02 06:42:08;;;;;;;11.73;2.03;;;11.20;99.90;;;;;;5015017;28;20059;-75
2024/01/02 06:44:34;;;;;;;5.25;1.00;;;11.20;99.90;;;;;;5016709;28;20540;-75
2024/01/02 06:47:00;;;;;;;14.75;1.35;;;11.20;99.90;;;;;;5008700;28;20037;-76
2024/01/02 06:49:26;;;;;;;7.10;0.85;;;11.10;99.90;;;;;;5013008;28;21205;-76
2024/01/02 06:51:51;;;;;;;3.03;1.15;;;11.20;99.90;;;;;;5009561;28;20046;-75
2024/01/02 06:54:17;;;;;;;2.38;0.50;;;11.20;99.90;;;;;;5016079;28;20386;-76
2024/01/02 06:56:42;;;;;;;7.20;0.68;;;11.20;99.90;;;;;;5015798;28;21507;-76
2024/01/02 06:59:08;;;;;;;10.57;1.42;;;11.20;99.90;;;;;;5010567;28;20060;-76
2024/01/02 07:01:34;;;;;;;8.05;1.00;;;11.20;99.90;;;;;;5013778;28;20043;-76
2024/01/02 07:03:59;;;;;;;13.65;1.65;;;11.20;99.90;;;;;;5002965;28;20037;-76
2024/01/02 07:06:26;;;;;;;3.40;1.15;;;11.10;99.90;;;;;;5007997;28;20399;-76
2024/01/02 07:08:52;;;;;;;1.23;0.50;;;11.20;99.90;;;;;;5012653;28;20599;-76
2024/01/02 07:11:17;;;;;;;3.20;0.80;;;11.30;99.90;;;;;;5002387;28;20506;-76
2024/01/02 07:13:43;;;;;;;0.93;0.43;;;11.30;99.90;;;;;;5011411;28;20040;-76
2024/01/02 07:16:09;;;;;;;4.50;0.70;;;11.30;99.90;;;;;;5013899;28;20033;-76
2024/01/02 07:18:35;;;;;;;1.77;0.55;;;11.40;99.90;;;;;;5028658;28;20412;-76
2024/01/02 07:21:00;;;;;;;3.47;0.47;;;11.40;99.90;;;;;;5028924;28;20486;-75
2024/01/02 07:23:26;;;;;;;0.45;0.17;;;11.30;99.90;;;;;;5012808;28;20041;-75
2024/01/02 07:25:52;;;;;;;0.45;0.40;;;11.20;99.90;;;;;;5013755;28;20037;-76
2024/01/02 07:28:18;;;;;;;1.25;0.45;;;11.20;99.90;;;;;;5010254;28;20045;-76
2024/01/02 07:30:43;;;;;;;2.78;1.10;;;11.30;99.90;;;;;;5009535;28;20206;-77
2024/01/02 07:33:09;;;;;;;9.23;0.70;;;11.30;99.90;;;;;;5009188;28;20124;-78
2024/01/02 07:35:35;;;;;;;0.40;0.40;;;11.40;99.90;;;;;;5016848;28;20037;-75
2024/01/02 07:38:00;;;;;;;3.45;0.38;;;11.40;99.90;;;;;;5014107;28;20030;-75
2024/01/02 07:40:26;;;;;;;6.40;0.68;;;11.50;99.90;;;;;;5011357;28;20021;-74
2024/01/02 07:42:51;;;;;;;0.32;0.32;;;11.50;99.90;;;;;;5013975;28;20037;-75
2024/01/02 07:45:17;;;;;;;6.68;0.75;;;11.40;99.90;;;;;;5014555;28;20022;-76
2024/01/02 07:47:43;;;;;;;13.68;0.68;;;11.40;99.90;;;;;;5010533;28;20040;-76
2024/01/02 07:50:09;;;;;;;2.72;0.73;;;11.30;99.90;;;;;;5014960;28;20033;-76
2024/01/02 07:52:35;;;;;;;4.47;0.35;;;11.40;99.90;;;;;;5006806;28;20037;-76
2024/01/02 07:55:00;;;;;;;1.83;0.17;;;11.40;99.90;;;;;;5010609;28;20026;-75
2024/01/02 07:57:26;;;;;;;12.07;1.00;;;11.40;99.90;;;;;;5015476;28;20041;-75
2024/01/02 07:59:52;;;;;;;0.90;0.10;;;11.40;99.90;;;;;;5016222;28;20042;-75
2024/01/02 08:02:17;;;;;;;3.83;0.88;;;11.40;99.90;;;;;;5015248;28;20029;-75
2024/01/02 08:04:43;;;;;;;11.13;0.40;;;11.50;99.90;;;;;;5016102;28;20033;-75
2024/01/02 08:07:08;;;;;;;3.83;0.20;;;11.40;99.90;;;;;;5013346;28;20037;-75
2024/01/02 08:09:34;;;;;;;4.97;0.73;;;11.40;99.90;;;;;;5021468;28;20033;-76
2024/01/02 08:12:00;;;;;;;4.20;0.60;;;11.40;99.90;;;;;;5013775;28;20056;-76
2024/01/02 08:14:25;;;;;;;17.42;1.13;;;11.40;99.90;;;;;;5013385;28;20151;-76
2024/01/02 08:16:51;;;;;;;0.82;0.68;;;11.40;99.90;;;;;;5014498;28;20029;-77
2024/01/02 08:19:17;;;;;;;1.33;0.45;;;11.50;99.90;;;;;;5010099;28;20086;-76
2024/01/02 08:21:43;;;;;;;4.68;0.35;;;11.40;99.90;;;;;;5009785;28;20152;-76
2024/01/02 08:24:08;;;;;;;1.83;0.32;;;11.50;99.90;;;;;;5011443;28;20040;-75
2024/01/02 08:26:34;;;;;;;2.05;0.70;;;11.50;99.90;;;;;;5006648;28;20457;-74
2024/01/02 08:29:00;;;;;;;11.82;0.73;;;11.50;99.90;;;;;;5010940;28;20072;-74
2024/01/02 08:31:26;;;;;;;16.08;0.75;;;11.50;99.90;;;;;;5013290;28;20465;-74
2024/01/02 08:33:51;;;;;;;1.02;0.25;;;11.50;99.90;;;;;;5006033;28;20490;-76
2024/01/02 08:36:18;;;;;;;14.32;2.03;;;11.50;99.90;;;;;;5010911;28;20057;-75
2024/01/02 08:38:44;;;;;;;1.13;0.30;;;11.60;99.90;;;;;;5014469;28;21686;-75
2024/01/02 08:41:10;;;;;;;4.90;0.45;;;11.60;99.90;;;;;;5008304;28;20037;-73
2024/01/02 08:43:36;;;;;;;5.18;1.67;;;11.60;99.90;;;;;;5016306;28;20032;-74
2024/01/02 08:46:02;;;;;;;13.88;0.70;;;11.60;99.90;;;;;;5012850;28;20113;-75
2024/01/02 08:48:27;;;;;;;6.03;0.77;;;11.60;99.90;;;;;;5017042;28;20044;-75
2024/01/02 08:50:53;;;;;;;8.50;1.08;;;11.70;99.90;;;;;;5013194;28;20474;-76
2024/01/02 08:53:19;;;;;;;9.60;0.93;;;11.70;99.90;;;;;;5009774;28;20446;-76
2024/01/02 08:55:44;;;;;;;6.43;0.70;;;11.70;99.90;;;;;;5010651;28;20079;-76
2024/01/02 08:58:12;;;;;;;11.63;1.05;;;11.70;99.90;;;;;;5014242;28;20056;-76
2024/01/02 09:00:37;;;;;;;3.55;0.70;;;11.70;99.90;;;;;;5010607;28;20063;-75
2024/01/02 09:03:03;;;;;;;7.22;1.30;;;11.70;99.90;;;;;;5015364;28;20025;-75
2024/01/02 09:05:29;;;;;;;4.60;0.50;;;11.70;99.90;;;;;;5018947;28;20029;-76
2024/01/02 09:07:55;;;;;;;2.85;0.82;;;11.70;99.90;;;;;;5012198;28;20041;-76
2024/01/02 09:10:22;;;;;;;13.93;1.35;;;11.70;99.90;;;;;;5016931;28;20470;-76
2024/01/02 09:12:48;;;;;;;4.45;0.77;;;11.70;99.90;;;;;;5017088;28;20547;-76
2024/01/02 09:15:14;;;;;;;10.00;1.10;;;11.70;99.90;;;;;;5020246;28;20033;-76
2024/01/02 09:17:39;;;;;;;3.70;1.05;;;11.70;99.90;;;;;;5021238;28;20038;-76
2024/01/02 09:20:05;;;;;;;9.77;1.10;;;11.80;99.90;;;;;;5018564;28;20032;-75
2024/01/02 09:22:31;;;;;;;2.22;0.95;;;11.80;99.90;;;;;;5022458;28;20437;-76
2024/01/02 09:24:59;;;;;;;6.43;1.30;;;11.80;99.90;;;;;;5012677;28;20124;-75
2024/01/02 09:27:28;;;;;;;10.63;0.90;;;11.90;99.90;;;;;;5011886;28;20125;-73
2024/01/02 09:29:54;;;;;;;9.55;1.10;;;11.80;99.90;;;;;;5016217;28;20057;-74
2024/01/02 09:32:19;;;;;;;9.18;1.65;;;11.80;99.90;;;;;;5015041;28;20517;-71
2024/01/02 09:34:45;;;;;;;9.27;0.90;;;11.80;99.90;;;;;;5012476;28;20389;-73
2024/01/02 09:37:11;;;;;;;15.48;1.17;;;11.80;99.90;;;;;;5013842;28;20038;-73
2024/01/02 09:39:37;;;;;;;9.05;1.30;;;11.80;99.90;;;;;;5014873;28;20061;-73
2024/01/02 09:42:32;;;;;;;14.15;1.38;;;11.80;99.90;;;;;;5009789;28;20026;-73
2024/01/02 09:45:24;;;;;;;6.72;1.65;;;11.80;99.90;;;;;;5010935;28;20029;-74
2024/01/02 09:48:12;;;;;;;9.52;1.42;;;11.80;99.90;;;;;;5007656;28;21094;-73
2024/01/02 09:50:46;;;;;;;21.23;1.20;;;11.80;99.90;;;;;;5014752;28;20018;-73
2024/01/02 09:53:51;;;;;;;15.23;1.50;;;11.80;99.90;;;;;;5009020;28;20033;-72
2024/01/02 09:56:26;;;;;;;11.88;1.23;;;11.90;99.90;;;;;;5014990;28;20033;-72
2024/01/02 09:59:31;;;;;;;13.38;0.88;;;11.90;99.90;;;;;;5013719;28;20083;-72
2024/01/02 10:01:59;;;;;;;4.65;1.05;;;11.90;99.90;;;;;;5005701;28;20038;-72
2024/01/02 10:04:34;;;;;;;8.57;1.38;;;11.90;99.90;;;;;;5014290;28;20041;-72
2024/01/02 10:06:59;;;;;;;13.20;1.92;;;12.00;99.90;;;;;;5008675;28;20497;-72
2024/01/02 10:10:06;;;;;;;11.38;1.08;;;12.00;99.90;;;;;;5013668;28;21054;-70
2024/01/02 10:13:09;;;;;;;16.20;1.13;;;12.00;99.90;;;;;;5007509;28;20067;-72
2024/01/02 10:15:37;;;;;;;12.50;0.90;;;12.10;99.90;;;;;;5009099;28;20033;-72
2024/01/02 10:18:05;;;;;;;11.80;1.27;;;12.00;99.90;;;;;;5010044;28;20102;-72
2024/01/02 10:20:51;;;;;;;14.52;1.23;;;12.10;99.90;;;;;;5013031;28;20044;-72
2024/01/02 10:23:52;;;;;;;5.20;2.17;;;12.10;99.90;;;;;;5013342;28;20862;-71
2024/01/02 10:26:21;;;;;;;16.33;1.50;;;12.00;99.90;;;;;;5012942;28;20462;-72
2024/01/02 10:28:49;;;;;;;24.80;2.00;;;12.10;99.90;;;;;;5011761;28;20049;-72
2024/01/02 10:31:40;;;;;;;13.30;2.25;;;12.00;99.90;;;;;;5035403;28;20025;-72
2024/01/02 10:34:30;;;;;;;7.47;1.02;;;12.00;99.90;;;;;;5026048;28;20497;-72
2024/01/02 10:37:02;;;;;;;6.50;1.70;;;12.10;99.90;;;;;;5014079;28;20065;-75
2024/01/02 10:39:37;;;;;;;24.40;2.03;;;12.10;99.90;;;;;;5022333;28;20100;-74
2024/01/02 10:42:22;;;;;;;17.48;2.05;;;12.10;99.90;;;;;;5015131;28;20076;-75
2024/01/02 10:45:17;;;;;;;22.30;1.88;;;12.10;99.90;;;;;;5021019;28;20025;-75
2024/01/02 10:48:13;;;;;;;16.77;2.55;;;12.10;99.90;;;;;;5013223;28;20021;-76
2024/01/02 10:51:10;;;;;;;29.38;2.15;;;12.00;99.90;;;;;;5019312;28;20065;-75
2024/01/02 10:53:54;;;;;;;15.73;2.15;;;12.00;99.90;;;;;;5004292;28;20043;-76
2024/01/02 10:56:38;;;;;;;15.98;1.23;;;12.00;99.90;;;;;;5018223;28;20060;-74
2024/01/02 10:59:12;;;;;;;15.90;1.88;;;12.00;99.90;;;;;;5020140;28;20037;-75
2024/01/02 11:01:40;;;;;;;16.48;1.30;;;11.90;99.90;;;;;;5013279;28;20022;-75
2024/01/02 11:04:25;;;;;;;14.02;2.40;;;12.00;99.90;;;;;;5018360;28;20034;-75
2024/01/02 11:07:09;;;;;;;13.25;1.63;;;12.00;99.90;;;;;;5016699;28;20055;-75
2024/01/02 11:09:50;;;;;;;20.83;2.63;;;11.90;99.90;;;;;;5016782;28;20108;-75
2024/01/02 11:12:18;;;;;;;12.05;1.40;;;11.80;99.90;;;;;;5016550;28;20034;-76
2024/01/02 11:14:45;;;;;;;14.65;1.42;;;11.80;99.90;;;;;;5014223;28;20029;-75
2024/01/02 11:17:15;;;;;;;14.95;1.88;;;11.80;99.90;;;;;;5017744;28;20040;-75
2024/01/02 11:20:08;;;;;;;15.93;2.53;;;11.80;99.90;;;;;;5014028;28;20080;-75
2024/01/02 11:22:41;;;;;;;10.15;1.20;;;11.80;99.90;;;;;;5012105;28;20069;-75
2024/01/02 11:25:10;;;;;;;5.40;1.27;;;11.80;99.90;;;;;;5016677;28;20041;-75
2024/01/02 11:27:39;;;;;;;12.00;1.70;;;11.80;99.90;;;;;;5006175;28;20034;-75
2024/01/02 11:30:09;;;;;;;11.68;2.53;;;11.80;99.90;;;;;;5011661;28;20058;-73
2024/01/02 11:32:45;;;;;;;7.50;2.00;;;11.80;99.90;;;;;;5016914;28;20040;-73
2024/01/02 11:35:11;;;;;;;4.47;1.10;;;11.80;99.90;;;;;;5021593;28;20413;-73
2024/01/02 11:37:37;;;;;;;23.77;1.50;;;11.80;99.90;;;;;;5020543;28;20998;-73
2024/01/02 11:40:28;;;;;;;6.80;0.98;;;11.80;99.90;;;;;;5024653;28;20136;-75
2024/01/02 11:43:03;;;;;;;6.22;1.30;;;11.90;99.90;;;;;;5017418;28;20060;-75
2024/01/02 11:45:33;;;;;;;8.98;1.70;;;11.90;99.90;;;;;;5015892;28;20034;-75
2024/01/02 11:48:38;;;;;;;11.00;1.77;;;11.90;99.90;;;;;;5006253;28;20766;-76
2024/01/02 11:51:11;;;;;;;5.22;0.88;;;11.80;99.90;;;;;;5008372;28;20033;-76
2024/01/02 11:53:56;;;;;;;15.45;2.10;;;11.90;99.90;;;;;;5009112;28;20029;-75
2024/01/02 11:56:23;;;;;;;21.52;1.48;;;11.90;99.90;;;;;;5008362;28;20095;-75
2024/01/02 11:59:18;;;;;;;19.63;1.70;;;11.90;99.90;;;;;;5014054;28;20060;-76
2024/01/02 12:02:23;;;;;;;8.15;0.88;;;11.90;99.90;;;;;;5006327;28;20034;-75
2024/01/02 12:05:12;;;;;;;8.68;2.10;;;11.90;99.90;;;;;;5012692;28;20049;-75
2024/01/02 12:07:41;;;;;;;12.85;2.00;;;11.90;99.90;;;;;;5007575;28;20037;-74
2024/01/02 12:10:07;;;;;;;17.30;2.53;;;11.90;99.90;;;;;;5009800;28;20041;-74
2024/01/02 12:13:04;;;;;;;14.82;1.45;;;12.00;99.90;;;;;;5010729;28;20037;-75
2024/01/02 12:15:52;;;;;;;5.93;0.88;;;12.00;99.90;;;;;;5006416;28;20851;-75
2024/01/02 12:18:22;;;;;;;16.27;1.80;;;12.00;99.90;;;;;;5010920;28;20362;-75
2024/01/02 12:20:54;;;;;;;13.05;2.22;;;12.00;99.90;;;;;;5006815;28;20075;-75
2024/01/02 12:23:22;;;;;;;15.18;2.22;;;12.10;99.90;;;;;;5012612;28;20034;-73
2024/01/02 12:25:49;;;;;;;19.92;1.95;;;12.10;99.90;;;;;;5013408;28;20104;-73
2024/01/02 12:28:18;;;;;;;10.52;1.88;;;12.10;99.90;;;;;;5008832;28;20033;-74
2024/01/02 12:30:50;;;;;;;4.50;1.10;;;12.20;99.90;;;;;;5012900;28;20599;-74
2024/01/02 12:33:22;;;;;;;19.85;2.17;;;12.20;99.90;;;;;;5007324;28;20042;-73
2024/01/02 12:36:27;;;;;;;5.40;1.10;;;12.20;99.90;;;;;;5009084;28;20026;-75
2024/01/02 12:38:55;;;;;;;6.25;1.27;;;12.20;99.90;;;;;;5010625;28;20081;-73
2024/01/02 12:41:26;;;;;;;3.90;0.93;;;12.20;99.90;;;;;;5009901;28;20394;-75
2024/01/02 12:43:56;;;;;;;13.00;2.50;;;12.20;99.90;;;;;;5009877;28;20120;-73
2024/01/02 12:46:48;;;;;;;7.28;1.60;;;12.20;99.90;;;;;;5007190;28;20030;-73
2024/01/02 12:49:19;;;;;;;14.32;1.95;;;12.30;99.90;;;;;;4999130;28;20037;-73
2024/01/02 12:51:46;;;;;;;13.40;1.95;;;12.30;99.90;;;;;;5012363;28;20636;-71
2024/01/02 12:54:14;;;;;;;10.70;2.55;;;12.30;99.90;;;;;;5008685;28;20026;-72